Time;durP1;ratioP1;P1;durP2;ratioP2;P2;SDS_P1;SDS_P2;PMS_P1;PMS_P2;Temp;Humidity;BMP_temperature;BMP_pressure;BME280_temperature;BME280_humidity;BME280_pressure;Samples;Min_cycle;Max_cycle;Signal;HPM_P1;HPM_P2
2022/10/18 00:01:04;;;;;;;0.50;0.50;;;15.20;99.90;;;;;;5067147;27;20169;-86
2022/10/18 00:03:41;;;;;;;0.43;0.43;;;15.20;99.90;;;;;;5080946;27;20111;-86
2022/10/18 00:06:23;;;;;;;0.40;0.40;;;15.30;99.90;;;;;;5053332;27;20043;-86
2022/10/18 00:08:52;;;;;;;0.40;0.40;;;15.20;99.90;;;;;;5071747;27;20043;-86
2022/10/18 00:11:21;;;;;;;0.40;0.40;;;15.30;99.90;;;;;;5096108;27;20053;-87
2022/10/18 00:13:58;;;;;;;0.50;0.50;;;15.30;99.90;;;;;;5063695;27;20066;-87
2022/10/18 00:16:30;;;;;;;0.50;0.50;;;15.30;99.90;;;;;;5062773;27;20430;-87
2022/10/18 00:19:10;;;;;;;0.50;0.50;;;15.30;99.90;;;;;;5077041;27;20089;-86
2022/10/18 00:21:48;;;;;;;0.50;0.50;;;15.50;99.90;;;;;;5056172;27;20054;-85
2022/10/18 00:24:20;;;;;;;0.50;0.50;;;15.50;99.90;;;;;;5068609;27;20047;-86
2022/10/18 00:27:09;;;;;;;0.50;0.50;;;15.40;99.90;;;;;;5079391;27;20055;-85
2022/10/18 00:29:38;;;;;;;0.40;0.40;;;15.50;99.90;;;;;;5063549;27;20114;-86
2022/10/18 00:32:14;;;;;;;0.50;0.50;;;15.40;99.90;;;;;;5078324;27;20042;-85
2022/10/18 00:34:46;;;;;;;0.50;0.50;;;15.40;99.90;;;;;;5064924;27;20042;-85
2022/10/18 00:37:12;;;;;;;0.50;0.50;;;15.30;99.90;;;;;;5049245;27;20398;-84
2022/10/18 00:39:48;;;;;;;0.43;0.43;;;15.20;99.90;;;;;;5060290;27;20050;-85
2022/10/18 00:42:30;;;;;;;0.50;0.50;;;15.40;99.90;;;;;;5067523;27;20069;-85
2022/10/18 00:45:26;;;;;;;0.40;0.40;;;15.10;99.90;;;;;;5020906;28;20860;-85
2022/10/18 00:48:17;;;;;;;0.40;0.40;;;15.00;99.90;;;;;;5000858;28;20139;-85
2022/10/18 00:51:01;;;;;;;0.50;0.50;;;15.20;99.90;;;;;;5037925;28;20505;-85
2022/10/18 00:53:39;;;;;;;0.50;0.50;;;15.10;99.90;;;;;;5030834;28;20047;-86
2022/10/18 00:56:12;;;;;;;0.40;0.40;;;15.00;99.90;;;;;;5038463;28;20792;-85
2022/10/18 01:01:41;;;;;;;0.50;0.50;;;14.90;99.90;;;;;;5042432;27;20093;-84
2022/10/18 01:04:17;;;;;;;0.40;0.40;;;15.00;99.90;;;;;;5032074;28;20063;-86
2022/10/18 01:07:32;;;;;;;0.50;0.50;;;15.10;99.90;;;;;;5049555;28;20437;-86
2022/10/18 01:10:20;;;;;;;0.50;0.50;;;15.10;99.90;;;;;;4961045;28;20053;-86
2022/10/18 01:13:14;;;;;;;0.50;0.50;;;15.10;99.90;;;;;;4981956;28;20113;-85
2022/10/18 01:16:02;;;;;;;0.50;0.50;;;15.00;99.90;;;;;;5036593;28;20346;-86
2022/10/18 01:18:47;;;;;;;0.40;0.40;;;15.20;99.90;;;;;;5022914;28;20811;-86
2022/10/18 01:21:47;;;;;;;0.50;0.50;;;15.30;99.90;;;;;;5019548;28;20058;-87
2022/10/18 01:24:25;;;;;;;0.50;0.50;;;15.40;99.90;;;;;;5034035;28;20619;-87
2022/10/18 01:27:17;;;;;;;0.50;0.50;;;15.40;99.90;;;;;;5013876;28;20070;-87
2022/10/18 01:30:17;;;;;;;0.50;0.50;;;15.20;99.90;;;;;;5013146;28;21023;-85
2022/10/18 01:33:14;;;;;;;0.50;0.50;;;15.40;99.90;;;;;;5013097;28;20058;-86
2022/10/18 01:35:55;;;;;;;0.50;0.50;;;15.30;99.90;;;;;;5013158;28;20424;-86
2022/10/18 01:38:45;;;;;;;0.50;0.50;;;15.30;99.90;;;;;;5011804;28;20108;-86
2022/10/18 01:41:20;;;;;;;0.50;0.50;;;15.20;99.90;;;;;;5028215;28;20039;-87
2022/10/18 01:44:14;;;;;;;0.50;0.50;;;15.30;99.90;;;;;;5026849;27;20051;-86
2022/10/18 01:46:50;;;;;;;0.50;0.50;;;15.20;99.90;;;;;;5041055;27;20050;-87
2022/10/18 01:49:40;;;;;;;0.50;0.50;;;15.30;99.90;;;;;;5052134;27;20127;-87
2022/10/18 01:52:26;;;;;;;;;;;15.20;99.90;;;;;;5052754;27;20046;-88
2022/10/18 01:55:05;;;;;;;0.50;0.50;;;15.20;99.90;;;;;;5050065;27;20288;-86
2022/10/18 01:58:19;;;;;;;0.50;0.50;;;15.10;99.90;;;;;;5050959;27;20195;-86
2022/10/18 02:04:57;;;;;;;0.50;0.50;;;15.10;99.90;;;;;;5018238;27;20103;-87
2022/10/18 02:11:37;;;;;;;0.50;0.50;;;15.20;99.90;;;;;;5053862;27;20058;-89
2022/10/18 02:14:41;;;;;;;;;;;;;;;;;;;;;
2022/10/18 02:17:41;;;;;;;0.50;0.50;;;15.10;99.90;;;;;;5014409;28;20052;-89
2022/10/18 02:20:35;;;;;;;0.50;0.50;;;15.00;99.90;;;;;;5044081;27;20035;-87
2022/10/18 02:23:52;;;;;;;0.50;0.50;;;15.00;99.90;;;;;;4993703;28;20678;-89
2022/10/18 02:26:30;;;;;;;0.50;0.50;;;15.20;99.90;;;;;;5031249;27;20078;-87
2022/10/18 02:29:33;;;;;;;0.50;0.50;;;15.10;99.90;;;;;;5022799;27;20500;-88
2022/10/18 02:32:42;;;;;;;0.50;0.50;;;15.00;99.90;;;;;;5060260;27;20631;-88
2022/10/18 02:35:46;;;;;;;0.40;0.40;;;15.10;99.90;;;;;;5042657;27;20108;-87
2022/10/18 02:39:02;;;;;;;0.50;0.50;;;15.00;99.90;;;;;;5056035;27;20130;-88
2022/10/18 02:42:08;;;;;;;0.50;0.50;;;15.00;99.90;;;;;;5052725;27;20047;-88
2022/10/18 02:45:33;;;;;;;0.50;0.50;;;15.00;99.90;;;;;;4948626;28;20226;-87
2022/10/18 02:48:27;;;;;;;0.43;0.43;;;14.90;99.90;;;;;;5024547;28;20047;-87
2022/10/18 02:51:09;;;;;;;0.43;0.43;;;14.80;99.90;;;;;;5037712;28;20099;-87
2022/10/18 02:54:05;;;;;;;0.50;0.50;;;14.70;99.90;;;;;;5037266;28;20047;-86
2022/10/18 02:56:42;;;;;;;0.50;0.50;;;14.70;99.90;;;;;;5057094;27;20142;-87
2022/10/18 02:59:47;;;;;;;0.40;0.40;;;14.80;99.90;;;;;;5061600;28;20347;-87
2022/10/18 03:02:45;;;;;;;0.50;0.50;;;14.70;99.90;;;;;;5034017;28;20047;-87
2022/10/18 03:05:21;;;;;;;0.50;0.50;;;14.70;99.90;;;;;;5049660;28;20055;-87
2022/10/18 03:08:10;;;;;;;0.40;0.40;;;14.60;99.90;;;;;;5063369;28;20085;-87
2022/10/18 03:11:02;;;;;;;0.50;0.50;;;14.70;99.90;;;;;;5051741;28;20055;-86
2022/10/18 03:13:42;;;;;;;0.50;0.50;;;14.60;99.90;;;;;;5030421;28;20059;-87
2022/10/18 03:16:11;;;;;;;0.50;0.50;;;14.60;99.90;;;;;;5022926;28;20492;-86
2022/10/18 03:18:49;;;;;;;0.50;0.50;;;14.60;99.90;;;;;;5040980;28;20342;-87
2022/10/18 03:21:21;;;;;;;0.50;0.50;;;14.50;99.90;;;;;;5059572;28;20046;-86
2022/10/18 03:24:22;;;;;;;0.50;0.50;;;14.50;99.90;;;;;;5056468;28;20120;-87
2022/10/18 03:26:54;;;;;;;0.50;0.50;;;14.50;99.90;;;;;;5023804;28;20205;-87
2022/10/18 03:29:52;;;;;;;0.50;0.50;;;14.50;99.90;;;;;;5036782;28;20077;-88
2022/10/18 03:35:42;;;;;;;0.50;0.50;;;14.40;99.90;;;;;;5045834;28;20419;-87
2022/10/18 03:38:32;;;;;;;0.50;0.50;;;14.50;99.90;;;;;;5067846;27;20449;-87
2022/10/18 03:44:05;;;;;;;0.50;0.50;;;14.30;99.90;;;;;;5065392;27;20135;-86
2022/10/18 03:46:57;;;;;;;0.50;0.50;;;14.40;99.90;;;;;;5056451;27;20133;-86
2022/10/18 03:49:41;;;;;;;0.50;0.50;;;14.40;99.90;;;;;;5045254;27;20062;-86
2022/10/18 03:52:07;;;;;;;;;;;14.30;99.90;;;;;;5060352;27;20055;-86
2022/10/18 03:55:02;;;;;;;0.50;0.50;;;14.50;99.90;;;;;;5047000;27;19923;-86
2022/10/18 03:57:54;;;;;;;0.50;0.50;;;14.40;99.90;;;;;;5065929;27;20421;-86
2022/10/18 04:00:26;;;;;;;0.50;0.50;;;14.40;99.90;;;;;;5040931;27;20470;-85
2022/10/18 04:02:55;;;;;;;0.50;0.50;;;14.40;99.90;;;;;;5032025;27;20042;-85
2022/10/18 04:05:29;;;;;;;0.50;0.50;;;14.20;99.90;;;;;;5028597;27;20035;-86
2022/10/18 04:08:28;;;;;;;0.50;0.50;;;14.30;99.90;;;;;;5037873;27;20120;-87
2022/10/18 04:11:32;;;;;;;0.50;0.50;;;14.30;99.90;;;;;;5066616;27;20099;-88
2022/10/18 04:14:04;;;;;;;0.50;0.50;;;14.30;99.90;;;;;;4990298;27;20185;-88
2022/10/18 04:16:48;;;;;;;0.50;0.50;;;14.30;99.90;;;;;;5043889;27;20570;-87
2022/10/18 04:20:04;;;;;;;0.50;0.50;;;14.10;99.90;;;;;;5024752;27;20149;-88
2022/10/18 04:23:02;;;;;;;0.50;0.50;;;14.10;99.90;;;;;;5037600;27;20051;-86
2022/10/18 04:26:01;;;;;;;0.50;0.50;;;14.20;99.90;;;;;;4998464;28;20052;-88
2022/10/18 04:29:09;;;;;;;;;;;;;;;;;;;;;
2022/10/18 04:32:03;;;;;;;;;;;;;;;;;;;;;
2022/10/18 04:35:24;;;;;;;0.50;0.50;;;14.10;99.90;;;;;;5064051;27;20372;-87
2022/10/18 04:41:40;;;;;;;;;;;;;;;;;;;;;
2022/10/18 04:44:30;;;;;;;0.50;0.50;;;14.00;99.90;;;;;;4960280;28;20405;-89
2022/10/18 04:50:20;;;;;;;0.50;0.50;;;14.00;99.90;;;;;;5042421;27;20051;-90
2022/10/18 04:53:15;;;;;;;;;;;;;;;;;;;;;
2022/10/18 04:55:51;;;;;;;0.50;0.50;;;14.00;99.90;;;;;;5073712;27;20649;-91
2022/10/18 05:05:57;;;;;;;0.60;0.60;;;13.80;99.90;;;;;;4984679;28;20213;-89
2022/10/18 05:09:05;;;;;;;0.50;0.50;;;13.80;99.90;;;;;;4986700;28;20052;-89
2022/10/18 05:11:48;;;;;;;0.50;0.50;;;13.90;99.90;;;;;;4988314;28;20044;-90
2022/10/18 05:14:51;;;;;;;0.50;0.50;;;13.90;99.90;;;;;;5046793;27;20919;-90
2022/10/18 05:17:26;;;;;;;0.50;0.50;;;14.00;99.90;;;;;;5047675;27;20065;-90
2022/10/18 05:20:16;;;;;;;0.60;0.60;;;14.00;99.90;;;;;;5028739;27;20433;-89
2022/10/18 05:22:47;;;;;;;0.50;0.50;;;13.80;99.90;;;;;;5032846;27;20059;-88
2022/10/18 05:31:35;;;;;;;0.52;0.52;;;13.80;99.90;;;;;;5050167;27;20210;-87
2022/10/18 05:37:35;;;;;;;0.50;0.50;;;13.80;99.90;;;;;;5059885;27;20832;-88
2022/10/18 05:40:13;;;;;;;0.50;0.50;;;13.90;99.90;;;;;;5009910;27;20046;-87
2022/10/18 05:43:05;;;;;;;0.50;0.50;;;13.90;99.90;;;;;;5018767;27;20039;-89
2022/10/18 05:45:47;;;;;;;0.50;0.50;;;13.80;99.90;;;;;;5043568;27;20054;-89
2022/10/18 05:48:35;;;;;;;0.50;0.50;;;13.80;99.90;;;;;;5049094;27;20134;-88
2022/10/18 05:51:10;;;;;;;0.50;0.50;;;14.00;99.90;;;;;;5057902;27;20311;-88
2022/10/18 05:57:21;;;;;;;0.50;0.50;;;13.90;99.90;;;;;;5032211;27;20050;-88
2022/10/18 06:00:37;;;;;;;0.50;0.50;;;13.90;99.90;;;;;;5061864;27;20050;-88
2022/10/18 06:09:20;;;;;;;0.50;0.50;;;13.90;99.90;;;;;;4943720;28;20046;-90
2022/10/18 06:11:56;;;;;;;0.50;0.50;;;13.80;99.90;;;;;;5008796;28;20074;-89
2022/10/18 06:14:43;;;;;;;0.50;0.50;;;13.80;99.90;;;;;;5002085;27;20828;-88
2022/10/18 06:17:43;;;;;;;0.50;0.50;;;13.70;99.90;;;;;;5022953;27;20047;-88
2022/10/18 06:20:19;;;;;;;0.50;0.50;;;13.80;99.90;;;;;;4981399;27;20090;-86
2022/10/18 06:23:07;;;;;;;0.50;0.50;;;13.70;99.90;;;;;;5027245;27;20218;-86
2022/10/18 06:26:07;;;;;;;0.50;0.50;;;13.70;99.90;;;;;;5009517;27;20043;-86
2022/10/18 06:29:19;;;;;;;;;;;;;;;;;;;;;
2022/10/18 06:34:52;;;;;;;0.50;0.50;;;13.60;99.90;;;;;;5019150;27;20611;-85
2022/10/18 06:37:28;;;;;;;0.50;0.50;;;13.50;99.90;;;;;;5028229;28;20059;-87
2022/10/18 06:40:36;;;;;;;;;;;;;;;;;;;;;
2022/10/18 06:43:33;;;;;;;0.50;0.50;;;13.50;99.90;;;;;;5033824;28;20051;-90
2022/10/18 06:46:46;;;;;;;0.50;0.50;;;13.40;99.90;;;;;;5042280;28;20578;-88
2022/10/18 06:49:21;;;;;;;0.50;0.50;;;13.30;99.90;;;;;;5036165;28;20281;-88
2022/10/18 06:52:34;;;;;;;0.50;0.50;;;13.30;99.90;;;;;;5060926;28;20385;-87
2022/10/18 07:02:40;;;;;;;0.60;0.60;;;13.30;99.90;;;;;;5039404;28;20531;-88
2022/10/18 07:05:58;;;;;;;;;;;;;;;;;;;;;
2022/10/18 07:09:01;;;;;;;0.50;0.50;;;13.20;99.90;;;;;;5003138;28;20066;-90
2022/10/18 07:14:45;;;;;;;0.50;0.50;;;13.20;99.90;;;;;;5040190;28;20048;-87
2022/10/18 07:17:25;;;;;;;0.50;0.50;;;13.40;99.90;;;;;;5064544;28;20389;-89
2022/10/18 07:20:16;;;;;;;0.52;0.52;;;13.40;99.90;;;;;;5052137;27;20225;-91
2022/10/18 07:23:29;;;;;;;0.50;0.50;;;13.40;99.90;;;;;;5033329;27;21100;-87
2022/10/18 07:26:14;;;;;;;0.50;0.50;;;13.50;99.90;;;;;;5052273;27;20409;-87
2022/10/18 07:28:57;;;;;;;0.60;0.60;;;13.40;99.90;;;;;;5044382;27;20217;-89
2022/10/18 07:32:40;;;;;;;0.60;0.60;;;13.50;99.90;;;;;;5064394;27;20062;-93
2022/10/18 07:35:05;;;;;;;0.60;0.60;;;13.60;99.90;;;;;;5042465;27;20051;-87
2022/10/18 07:40:40;;;;;;;0.60;0.60;;;13.50;99.90;;;;;;5065150;27;20042;-90
2022/10/18 07:43:40;;;;;;;;;;;;;;;;;;;;;
2022/10/18 07:50:46;;;;;;;0.50;0.50;;;13.70;99.90;;;;;;5064573;27;20231;-88
2022/10/18 07:53:55;;;;;;;0.50;0.50;;;13.70;99.90;;;;;;5018027;28;20232;-93
2022/10/18 07:57:26;;;;;;;;;;;;;;;;;;;;;
2022/10/18 08:06:48;;;;;;;0.50;0.50;;;14.00;99.90;;;;;;4879135;29;20049;-96
2022/10/18 08:09:37;;;;;;;0.50;0.50;;;14.00;99.90;;;;;;4871032;29;20406;-88
2022/10/18 08:12:40;;;;;;;;;;;;;;;;;;;;;
2022/10/18 08:19:11;;;;;;;0.50;0.50;;;14.20;99.90;;;;;;4901951;28;20110;-90
2022/10/18 08:28:18;;;;;;;;;;;;;;;;;;;;;
2022/10/18 08:31:29;;;;;;;;;;;;;;;;;;;;;
2022/10/18 08:35:31;;;;;;;;;;;;;;;;;;;;;
2022/10/18 08:38:25;;;;;;;0.50;0.50;;;14.20;99.90;;;;;;4935751;28;20049;-94
2022/10/18 08:45:06;;;;;;;0.50;0.50;;;14.40;99.90;;;;;;4912528;28;20104;-89
2022/10/18 08:47:47;;;;;;;0.60;0.60;;;14.40;99.90;;;;;;4864607;29;20979;-89
2022/10/18 08:54:49;;;;;;;;;;;;;;;;;;;;;
2022/10/18 08:57:58;;;;;;;0.50;0.50;;;14.60;99.90;;;;;;4850521;29;20060;-93
2022/10/18 09:04:05;;;;;;;0.50;0.50;;;14.50;99.90;;;;;;4801318;28;20572;-90
2022/10/18 09:07:11;;;;;;;0.50;0.50;;;14.80;99.90;;;;;;4885589;28;20463;-88
2022/10/18 09:10:09;;;;;;;0.60;0.60;;;14.90;99.90;;;;;;4919674;28;20062;-89
2022/10/18 09:13:31;;;;;;;0.50;0.50;;;15.00;99.90;;;;;;4914080;28;20058;-87
2022/10/18 09:16:41;;;;;;;0.50;0.50;;;15.00;99.90;;;;;;4947525;28;20057;-89
2022/10/18 09:19:53;;;;;;;0.50;0.50;;;14.90;99.90;;;;;;4950765;28;20045;-86
2022/10/18 09:22:52;;;;;;;0.50;0.50;;;15.00;99.90;;;;;;4946110;28;20156;-87
2022/10/18 09:26:11;;;;;;;0.60;0.60;;;14.90;99.90;;;;;;4940468;28;20486;-89
2022/10/18 09:29:12;;;;;;;;;;;14.90;99.90;;;;;;4965324;28;20379;-91
2022/10/18 09:35:51;;;;;;;0.50;0.50;;;14.90;99.90;;;;;;5021004;28;20047;-91
2022/10/18 09:42:04;;;;;;;0.50;0.50;;;14.80;99.90;;;;;;5022941;28;20128;-86
2022/10/18 09:45:37;;;;;;;;;;;;;;;;;;;;;
2022/10/18 09:52:17;;;;;;;;;;;;;;;;;;;;;
2022/10/18 09:58:08;;;;;;;0.50;0.50;;;15.30;99.90;;;;;;5043107;27;20061;-87
2022/10/18 10:00:55;;;;;;;0.50;0.50;;;15.30;99.90;;;;;;5048959;27;20435;-82
2022/10/18 10:03:24;;;;;;;0.50;0.50;;;15.50;99.90;;;;;;5020383;27;20239;-86
2022/10/18 10:06:40;;;;;;;;;;;;;;;;;;;;;
2022/10/18 10:09:20;;;;;;;0.50;0.50;;;16.20;99.90;;;;;;5058034;27;20043;-84
2022/10/18 10:15:41;;;;;;;0.50;0.50;;;16.70;99.90;;;;;;5016350;28;20597;-89
2022/10/18 10:18:30;;;;;;;0.50;0.50;;;16.50;99.90;;;;;;4982207;28;20044;-85
2022/10/18 10:21:06;;;;;;;0.50;0.50;;;16.70;99.90;;;;;;5032143;27;20511;-86
2022/10/18 10:23:44;;;;;;;0.50;0.50;;;16.70;99.90;;;;;;5047761;27;20062;-86
2022/10/18 10:26:39;;;;;;;0.50;0.50;;;17.00;99.90;;;;;;5056423;27;20178;-87
2022/10/18 10:29:46;;;;;;;0.50;0.50;;;17.00;99.90;;;;;;5044878;27;20047;-85
2022/10/18 10:32:20;;;;;;;0.50;0.50;;;16.90;99.90;;;;;;5058382;27;20043;-86
2022/10/18 10:34:46;;;;;;;0.50;0.50;;;16.90;99.90;;;;;;5055486;27;20377;-83
2022/10/18 10:37:37;;;;;;;0.50;0.50;;;17.00;99.90;;;;;;5032326;28;20447;-88
2022/10/18 10:40:44;;;;;;;0.50;0.50;;;17.20;99.90;;;;;;5041029;27;20051;-84
2022/10/18 10:43:38;;;;;;;0.50;0.50;;;17.30;99.90;;;;;;5053380;27;20051;-87
2022/10/18 10:46:35;;;;;;;0.50;0.50;;;17.30;99.90;;;;;;5048597;28;20412;-85
2022/10/18 10:49:10;;;;;;;0.50;0.50;;;17.30;99.90;;;;;;5036911;28;20047;-82
2022/10/18 10:51:53;;;;;;;;;;;;;;;;;;;;;
2022/10/18 10:54:34;;;;;;;0.50;0.50;;;17.70;99.90;;;;;;5055081;27;20219;-86
2022/10/18 10:57:11;;;;;;;0.50;0.50;;;17.80;99.90;;;;;;5031431;28;20238;-84
2022/10/18 10:59:53;;;;;;;0.40;0.40;;;18.00;99.90;;;;;;5046574;27;20089;-83
2022/10/18 11:02:33;;;;;;;0.50;0.50;;;18.00;99.90;;;;;;5066557;27;20053;-82
2022/10/18 11:05:25;;;;;;;0.50;0.50;;;18.20;99.90;;;;;;5054638;27;20430;-84
2022/10/18 11:07:58;;;;;;;0.50;0.50;;;18.30;99.90;;;;;;5026543;27;20059;-83
2022/10/18 11:10:40;;;;;;;0.50;0.50;;;18.20;99.90;;;;;;5053127;27;20720;-84
2022/10/18 11:13:44;;;;;;;;;;;;;;;;;;;;;
2022/10/18 11:16:35;;;;;;;0.40;0.40;;;18.00;99.90;;;;;;5039937;27;20176;-82
2022/10/18 11:19:14;;;;;;;0.50;0.50;;;18.00;99.90;;;;;;5052208;27;20975;-84
2022/10/18 11:21:41;;;;;;;0.40;0.40;;;18.40;99.90;;;;;;5042949;27;20126;-83
2022/10/18 11:24:14;;;;;;;0.40;0.40;;;18.50;99.90;;;;;;4997410;27;20046;-81
2022/10/18 11:26:57;;;;;;;0.40;0.40;;;18.50;99.90;;;;;;5029516;27;20138;-82
2022/10/18 11:29:42;;;;;;;0.40;0.40;;;18.70;99.90;;;;;;5020895;27;20051;-81
2022/10/18 11:32:25;;;;;;;0.40;0.40;;;18.50;99.90;;;;;;5037705;27;20537;-82
2022/10/18 11:34:53;;;;;;;0.40;0.40;;;18.60;99.90;;;;;;5040763;27;20043;-81
2022/10/18 11:37:53;;;;;;;0.40;0.40;;;18.90;99.90;;;;;;5037584;27;20365;-80
2022/10/18 11:40:58;;;;;;;0.40;0.40;;;18.90;99.90;;;;;;5032884;27;20118;-80
2022/10/18 11:43:42;;;;;;;0.40;0.40;;;19.20;99.90;;;;;;5040015;27;20058;-80
2022/10/18 11:46:26;;;;;;;0.40;0.40;;;18.60;99.90;;;;;;5016746;27;20382;-82
2022/10/18 11:48:58;;;;;;;0.40;0.40;;;18.70;99.90;;;;;;5042087;27;20184;-81
2022/10/18 11:51:42;;;;;;;0.40;0.40;;;19.00;99.90;;;;;;5042541;27;20047;-82
2022/10/18 11:54:33;;;;;;;0.50;0.50;;;19.20;99.90;;;;;;5038959;27;20218;-81
2022/10/18 11:57:44;;;;;;;0.40;0.40;;;19.30;99.90;;;;;;5038912;27;20176;-81
2022/10/18 12:00:32;;;;;;;0.40;0.40;;;19.50;99.90;;;;;;5024842;27;20563;-82
2022/10/18 12:03:35;;;;;;;0.40;0.40;;;19.40;99.90;;;;;;5031656;27;20586;-83
2022/10/18 12:06:12;;;;;;;0.50;0.50;;;19.40;99.90;;;;;;5037183;27;20047;-82
2022/10/18 12:08:46;;;;;;;0.40;0.40;;;19.30;99.90;;;;;;5038434;27;20055;-82
2022/10/18 12:11:25;;;;;;;0.40;0.40;;;19.30;99.90;;;;;;5055343;27;20657;-82
2022/10/18 12:13:59;;;;;;;0.40;0.40;;;18.80;99.90;;;;;;5045894;27;20153;-80
2022/10/18 12:16:32;;;;;;;0.40;0.40;;;18.40;99.90;;;;;;5039420;27;20046;-80
2022/10/18 12:19:01;;;;;;;0.40;0.40;;;18.40;99.90;;;;;;5012381;27;20522;-81
2022/10/18 12:21:34;;;;;;;0.40;0.40;;;18.50;99.90;;;;;;5037744;27;20092;-82
2022/10/18 12:24:09;;;;;;;0.40;0.40;;;18.90;99.90;;;;;;5021951;27;20346;-85
2022/10/18 12:26:39;;;;;;;0.47;0.47;;;19.20;99.90;;;;;;5020185;27;20422;-82
2022/10/18 12:29:39;;;;;;;0.40;0.40;;;19.30;99.90;;;;;;5040500;27;20054;-82
2022/10/18 12:32:11;;;;;;;0.43;0.43;;;19.30;99.90;;;;;;5040295;27;20570;-81
2022/10/18 12:34:48;;;;;;;0.40;0.40;;;19.30;99.90;;;;;;5040468;27;20298;-79
2022/10/18 12:37:44;;;;;;;0.40;0.40;;;19.30;99.90;;;;;;5036557;27;20453;-80
2022/10/18 12:40:47;;;;;;;0.40;0.40;;;19.30;99.90;;;;;;5036874;27;20136;-77
2022/10/18 12:43:38;;;;;;;0.40;0.40;;;19.60;99.90;;;;;;5002393;27;20158;-80
2022/10/18 12:46:07;;;;;;;0.40;0.40;;;19.30;99.90;;;;;;5037861;27;20521;-82
2022/10/18 12:48:41;;;;;;;0.40;0.40;;;19.50;99.90;;;;;;5043503;27;20252;-83
2022/10/18 12:51:20;;;;;;;0.47;0.47;;;19.30;99.90;;;;;;5033825;27;20428;-81
2022/10/18 12:54:15;;;;;;;0.40;0.40;;;19.00;99.90;;;;;;5051334;27;20581;-80
2022/10/18 12:56:43;;;;;;;0.40;0.40;;;19.10;99.90;;;;;;5039560;27;20112;-80
2022/10/18 12:59:15;;;;;;;0.50;0.50;;;19.20;99.90;;;;;;5043935;27;20643;-82
2022/10/18 13:01:50;;;;;;;0.40;0.40;;;19.50;99.90;;;;;;5029086;27;20515;-81
2022/10/18 13:04:31;;;;;;;0.40;0.40;;;19.00;99.90;;;;;;5060009;27;20514;-81
2022/10/18 13:06:57;;;;;;;0.40;0.40;;;18.40;99.90;;;;;;5045129;27;20409;-80
2022/10/18 13:09:43;;;;;;;0.40;0.40;;;18.70;99.90;;;;;;5023025;27;20050;-82
2022/10/18 13:12:11;;;;;;;0.50;0.50;;;19.10;99.90;;;;;;5029375;27;20054;-81
2022/10/18 13:14:53;;;;;;;0.40;0.40;;;19.00;99.90;;;;;;5048920;27;20423;-83
2022/10/18 13:17:46;;;;;;;0.40;0.40;;;19.10;99.90;;;;;;5030741;27;20250;-79
2022/10/18 13:20:33;;;;;;;0.40;0.40;;;19.00;99.90;;;;;;5063541;27;20099;-80
2022/10/18 13:23:23;;;;;;;0.40;0.40;;;19.00;99.90;;;;;;5042636;27;20388;-80
2022/10/18 13:26:12;;;;;;;0.40;0.40;;;18.70;99.90;;;;;;5044782;27;20050;-80
2022/10/18 13:28:59;;;;;;;0.40;0.40;;;18.40;99.90;;;;;;5055660;27;20057;-80
2022/10/18 13:31:53;;;;;;;0.40;0.40;;;18.00;99.90;;;;;;5048381;27;20042;-81
2022/10/18 13:34:22;;;;;;;0.50;0.50;;;18.20;99.90;;;;;;5039118;27;20138;-79
2022/10/18 13:40:29;;;;;;;0.40;0.40;;;18.50;99.90;;;;;;5087904;27;20041;-82
2022/10/18 13:42:55;;;;;;;0.40;0.40;;;18.50;99.90;;;;;;5074633;27;20140;-81
2022/10/18 13:45:30;;;;;;;0.40;0.40;;;18.60;99.90;;;;;;5065085;27;20043;-81
2022/10/18 13:48:16;;;;;;;0.40;0.40;;;18.80;99.90;;;;;;5077174;27;20820;-81
2022/10/18 13:50:46;;;;;;;0.50;0.50;;;19.00;99.90;;;;;;5090510;27;20960;-82
2022/10/18 13:53:33;;;;;;;0.40;0.40;;;19.10;99.90;;;;;;5053658;27;20043;-81
2022/10/18 13:56:25;;;;;;;0.40;0.40;;;18.70;99.90;;;;;;5070277;27;20143;-79
2022/10/18 13:59:37;;;;;;;0.40;0.40;;;18.20;99.90;;;;;;5086696;27;20501;-77
2022/10/18 14:02:36;;;;;;;0.40;0.40;;;18.50;99.90;;;;;;5023033;27;20054;-80
2022/10/18 14:05:15;;;;;;;0.40;0.40;;;18.70;99.90;;;;;;5040565;27;20434;-78
2022/10/18 14:07:43;;;;;;;0.50;0.50;;;18.80;99.90;;;;;;5038550;27;20395;-81
2022/10/18 14:10:22;;;;;;;0.40;0.40;;;19.00;99.90;;;;;;5060201;27;20994;-80
2022/10/18 14:12:55;;;;;;;0.40;0.40;;;19.10;99.90;;;;;;5067851;27;20591;-80
2022/10/18 14:15:40;;;;;;;0.40;0.40;;;19.10;99.90;;;;;;5042726;27;20411;-80
2022/10/18 14:18:22;;;;;;;0.40;0.40;;;18.80;99.90;;;;;;5045240;27;20232;-80
2022/10/18 14:20:54;;;;;;;0.40;0.40;;;18.80;99.90;;;;;;5059452;27;20083;-80
2022/10/18 14:23:23;;;;;;;0.40;0.40;;;18.80;99.90;;;;;;5064110;27;20618;-81
2022/10/18 14:25:49;;;;;;;0.40;0.40;;;18.90;99.90;;;;;;5047491;27;20051;-80
2022/10/18 14:28:19;;;;;;;0.45;0.45;;;18.90;99.90;;;;;;4995557;27;20572;-81
2022/10/18 14:30:54;;;;;;;0.40;0.40;;;18.60;99.90;;;;;;5051063;27;20042;-79
2022/10/18 14:33:32;;;;;;;0.40;0.40;;;18.60;99.90;;;;;;5061482;27;20209;-79
2022/10/18 14:36:18;;;;;;;0.50;0.50;;;18.60;99.90;;;;;;5063816;27;20467;-77
2022/10/18 14:38:55;;;;;;;0.40;0.40;;;18.50;99.90;;;;;;5064544;27;20058;-80
2022/10/18 14:41:32;;;;;;;0.40;0.40;;;18.40;99.90;;;;;;5048826;27;20616;-80
2022/10/18 14:44:13;;;;;;;0.40;0.40;;;18.10;99.90;;;;;;5029068;27;20393;-80
2022/10/18 14:46:48;;;;;;;0.40;0.40;;;17.90;99.90;;;;;;5038197;27;20522;-79
2022/10/18 14:49:15;;;;;;;0.50;0.50;;;17.90;99.90;;;;;;5007899;28;20110;-77
2022/10/18 14:51:44;;;;;;;0.40;0.40;;;17.80;99.90;;;;;;5035535;27;20055;-79
2022/10/18 14:54:19;;;;;;;0.50;0.50;;;17.40;99.90;;;;;;5023168;27;20045;-78
2022/10/18 14:56:46;;;;;;;0.40;0.40;;;17.60;99.90;;;;;;5029738;28;20051;-77
2022/10/18 14:59:25;;;;;;;0.50;0.50;;;17.50;99.90;;;;;;5036341;28;20475;-80
2022/10/18 15:01:58;;;;;;;0.47;0.47;;;17.40;99.90;;;;;;5028804;28;20811;-79
2022/10/18 15:04:31;;;;;;;0.40;0.40;;;17.30;99.90;;;;;;5034060;27;20066;-80
2022/10/18 15:07:04;;;;;;;0.50;0.50;;;17.20;99.90;;;;;;5035078;28;20135;-78
2022/10/18 15:09:32;;;;;;;0.45;0.45;;;17.20;99.90;;;;;;5030851;28;20043;-79
2022/10/18 15:12:01;;;;;;;0.50;0.50;;;17.10;99.90;;;;;;5038725;27;20055;-79
2022/10/18 15:14:28;;;;;;;0.50;0.50;;;17.00;99.90;;;;;;5036428;27;20431;-79
2022/10/18 15:17:10;;;;;;;0.40;0.40;;;16.90;99.90;;;;;;5024764;28;20047;-80
2022/10/18 15:19:41;;;;;;;0.40;0.40;;;16.90;99.90;;;;;;5036705;28;20051;-79
2022/10/18 15:22:08;;;;;;;0.40;0.40;;;16.90;99.90;;;;;;5032493;28;20039;-80
2022/10/18 15:24:37;;;;;;;0.40;0.40;;;16.80;99.90;;;;;;5003767;28;20487;-79
2022/10/18 15:27:21;;;;;;;0.50;0.50;;;16.80;99.90;;;;;;5014449;28;20093;-81
2022/10/18 15:29:47;;;;;;;0.50;0.50;;;16.70;99.90;;;;;;5035560;28;20043;-79
2022/10/18 15:32:45;;;;;;;0.50;0.50;;;16.60;99.90;;;;;;5037901;27;20837;-80
2022/10/18 15:35:32;;;;;;;0.50;0.50;;;16.60;99.90;;;;;;5032206;28;20086;-80
2022/10/18 15:38:16;;;;;;;0.50;0.50;;;16.50;99.90;;;;;;5032269;28;20046;-80
2022/10/18 15:40:43;;;;;;;0.50;0.50;;;16.40;99.90;;;;;;5006940;28;20177;-80
2022/10/18 15:43:27;;;;;;;0.50;0.50;;;16.40;99.90;;;;;;5029669;28;20610;-79
2022/10/18 15:45:59;;;;;;;0.40;0.40;;;16.40;99.90;;;;;;5036936;27;20583;-80
2022/10/18 15:48:41;;;;;;;0.50;0.50;;;16.30;99.90;;;;;;5064231;27;20046;-79
2022/10/18 15:51:46;;;;;;;0.40;0.40;;;16.20;99.90;;;;;;5023360;27;20092;-80
2022/10/18 15:54:33;;;;;;;0.50;0.50;;;16.10;99.90;;;;;;5054815;27;20301;-79
2022/10/18 15:57:07;;;;;;;0.50;0.50;;;16.00;99.90;;;;;;5029856;27;20065;-81
2022/10/18 15:59:33;;;;;;;0.50;0.50;;;15.90;99.90;;;;;;5058678;27;20389;-80
2022/10/18 16:01:59;;;;;;;0.50;0.50;;;15.80;99.90;;;;;;5061043;27;20141;-80
2022/10/18 16:04:27;;;;;;;0.50;0.50;;;15.70;99.90;;;;;;5041000;27;20370;-80
2022/10/18 16:06:54;;;;;;;0.50;0.50;;;15.70;99.90;;;;;;5046831;27;20062;-80
2022/10/18 16:09:23;;;;;;;0.50;0.50;;;15.60;99.90;;;;;;5044614;27;20085;-81
2022/10/18 16:11:50;;;;;;;0.50;0.50;;;15.50;99.90;;;;;;5057806;27;20514;-80
2022/10/18 16:14:17;;;;;;;0.50;0.50;;;15.40;99.90;;;;;;5007485;27;20064;-79
2022/10/18 16:16:43;;;;;;;0.50;0.50;;;15.40;99.90;;;;;;5028843;27;20042;-80
2022/10/18 16:19:14;;;;;;;0.50;0.50;;;15.20;99.90;;;;;;5056740;27;20493;-80
2022/10/18 16:21:42;;;;;;;0.50;0.50;;;15.10;99.90;;;;;;5057543;27;20087;-80
2022/10/18 16:24:08;;;;;;;0.40;0.40;;;15.00;99.90;;;;;;5041849;27;20050;-80
2022/10/18 16:26:34;;;;;;;0.50;0.50;;;14.90;99.90;;;;;;5031241;27;20780;-80
2022/10/18 16:29:00;;;;;;;0.50;0.50;;;14.80;99.90;;;;;;5049441;27;20070;-80
2022/10/18 16:31:31;;;;;;;0.50;0.50;;;14.70;99.90;;;;;;5039719;27;20051;-81
2022/10/18 16:34:00;;;;;;;0.50;0.50;;;14.60;99.90;;;;;;5040401;27;20108;-81
2022/10/18 16:36:32;;;;;;;0.50;0.50;;;14.40;99.90;;;;;;5041070;27;20049;-81
2022/10/18 16:39:02;;;;;;;0.50;0.50;;;14.20;99.90;;;;;;5026803;27;20123;-80
2022/10/18 16:41:28;;;;;;;0.50;0.50;;;14.20;99.90;;;;;;5020475;27;20043;-81
2022/10/18 16:43:54;;;;;;;0.50;0.50;;;14.20;99.90;;;;;;5022694;27;20080;-80
2022/10/18 16:46:26;;;;;;;0.50;0.50;;;14.00;99.90;;;;;;5036571;27;20055;-80